Time;durP1;ratioP1;P1;durP2;ratioP2;P2;SDS_P1;SDS_P2;PMS_P1;PMS_P2;Temp;Humidity;BMP_temperature;BMP_pressure;BME280_temperature;BME280_humidity;BME280_pressure;Samples;Min_cycle;Max_cycle;Signal;HPM_P1;HPM_P2
2024/02/17 00:00:31;;;;;;;15.77;12.47;;;11.50;99.90;;;-141.84;100.00;119224.81;5091433;28;20220;-70
2024/02/17 00:03:00;;;;;;;18.95;12.82;;;11.60;99.90;;;-141.84;100.00;119224.81;5092240;28;20197;-68
2024/02/17 00:05:30;;;;;;;15.23;12.93;;;11.60;99.90;;;-141.84;100.00;119224.81;5092388;28;20228;-70
2024/02/17 00:07:58;;;;;;;17.20;12.47;;;11.80;99.90;;;-141.84;100.00;119224.81;5093212;28;20227;-70
2024/02/17 00:10:30;;;;;;;17.70;13.57;;;11.60;99.90;;;-141.84;100.00;119224.81;5092162;28;20255;-68
2024/02/17 00:12:58;;;;;;;17.10;13.53;;;11.60;99.90;;;-141.84;100.00;119224.81;5091363;28;20277;-70
2024/02/17 00:15:27;;;;;;;17.77;14.30;;;11.60;99.90;;;-141.84;100.00;119224.81;5092646;28;20273;-69
2024/02/17 00:17:56;;;;;;;17.60;13.70;;;11.50;99.90;;;-141.84;100.00;119224.81;5092149;28;20226;-71
2024/02/17 00:20:23;;;;;;;17.37;13.57;;;11.60;99.90;;;-141.84;100.00;119224.81;5091893;28;20203;-69
2024/02/17 00:22:53;;;;;;;16.67;13.83;;;11.50;99.90;;;-141.84;100.00;119224.81;5084971;28;20273;-54
2024/02/17 00:25:21;;;;;;;17.77;14.23;;;11.50;99.90;;;-141.84;100.00;119224.81;5091296;28;20231;-55
2024/02/17 00:27:49;;;;;;;16.17;13.60;;;11.50;99.90;;;-141.84;100.00;119224.81;5092031;28;20228;-53
2024/02/17 00:30:20;;;;;;;16.67;13.80;;;11.50;99.90;;;-141.84;100.00;119224.81;5091719;28;20302;-54
2024/02/17 00:32:49;;;;;;;17.40;13.80;;;11.50;99.90;;;-141.84;100.00;119224.81;5094439;28;20259;-51
2024/02/17 00:35:17;;;;;;;16.30;13.73;;;11.50;99.90;;;-141.84;100.00;119224.81;5091614;28;20629;-55
2024/02/17 00:37:46;;;;;;;20.80;14.50;;;11.50;99.90;;;-141.84;100.00;119224.81;5092825;28;20264;-54
2024/02/17 00:40:16;;;;;;;16.17;13.27;;;11.50;99.90;;;-141.84;100.00;119224.81;5091756;28;20303;-55
2024/02/17 00:42:44;;;;;;;17.38;13.73;;;11.50;99.90;;;-141.84;100.00;119224.81;5091749;28;20250;-54
2024/02/17 00:45:13;;;;;;;18.50;15.43;;;11.50;99.90;;;-141.84;100.00;119224.81;5092406;28;20588;-54
2024/02/17 00:47:41;;;;;;;19.23;16.23;;;11.50;99.90;;;-141.84;100.00;119224.81;5092583;28;20613;-56
2024/02/17 00:50:10;;;;;;;22.20;17.27;;;11.50;99.90;;;-141.84;100.00;119224.81;5091296;28;20228;-51
2024/02/17 00:52:38;;;;;;;19.33;15.17;;;11.50;99.90;;;-141.84;100.00;119224.81;5089579;28;20287;-53
2024/02/17 00:55:08;;;;;;;20.23;16.23;;;11.50;99.90;;;-141.84;100.00;119224.81;5090999;28;20235;-54
2024/02/17 00:57:38;;;;;;;19.53;17.17;;;11.50;99.90;;;-141.84;100.00;119224.81;5083633;28;20302;-54
2024/02/17 01:00:09;;;;;;;21.67;16.83;;;11.50;99.90;;;-141.84;100.00;119224.81;5092119;28;20192;-54
2024/02/17 01:02:37;;;;;;;18.67;15.90;;;11.50;99.90;;;-141.84;100.00;119224.81;5091112;28;20867;-54
2024/02/17 01:05:10;;;;;;;24.07;17.97;;;11.50;99.90;;;-141.84;100.00;119224.81;5091154;28;20258;-52
2024/02/17 01:07:38;;;;;;;23.80;16.53;;;11.40;99.90;;;-141.84;100.00;119224.81;5091861;28;20304;-54
2024/02/17 01:10:10;;;;;;;21.17;16.07;;;11.40;99.90;;;-141.84;100.00;119224.81;5091649;28;20273;-54
2024/02/17 01:12:40;;;;;;;21.77;17.30;;;11.30;99.90;;;-141.84;100.00;119224.81;5092440;28;20250;-53
2024/02/17 01:15:09;;;;;;;22.30;17.77;;;11.30;99.90;;;-141.84;100.00;119224.81;5091239;28;20254;-53
2024/02/17 01:17:38;;;;;;;21.47;16.77;;;11.30;99.90;;;-141.84;100.00;119224.81;5091505;28;20223;-53
2024/02/17 01:20:08;;;;;;;20.50;16.93;;;11.30;99.90;;;-141.84;100.00;119224.81;5090792;28;20227;-54
2024/02/17 01:22:36;;;;;;;18.87;16.30;;;11.30;99.90;;;-141.84;100.00;119224.81;5091113;28;20251;-54
2024/02/17 01:25:06;;;;;;;19.57;15.77;;;11.30;99.90;;;-141.84;100.00;119224.81;5091923;28;20235;-55
2024/02/17 01:27:34;;;;;;;18.63;15.97;;;11.30;99.90;;;-141.84;100.00;119224.81;5091050;28;20231;-51
2024/02/17 01:30:05;;;;;;;17.87;14.97;;;11.20;99.90;;;-141.84;100.00;119224.81;5091225;28;20191;-55
2024/02/17 01:32:33;;;;;;;17.93;14.60;;;11.30;99.90;;;-141.84;100.00;119224.81;5091478;28;20199;-56
2024/02/17 01:35:02;;;;;;;16.97;14.37;;;11.50;99.90;;;-141.84;100.00;119224.81;5090489;28;20216;-56
2024/02/17 01:37:30;;;;;;;17.57;14.90;;;11.20;99.90;;;-141.84;100.00;119224.81;5090597;28;20254;-52
2024/02/17 01:39:58;;;;;;;19.30;15.93;;;11.20;99.90;;;-141.84;100.00;119224.81;5091634;28;20254;-51
2024/02/17 01:42:28;;;;;;;17.57;14.37;;;11.10;99.90;;;-141.84;100.00;119224.81;5091148;28;20296;-56
2024/02/17 01:44:56;;;;;;;15.53;13.50;;;11.10;99.90;;;-141.84;100.00;119224.81;5090780;28;20192;-56
2024/02/17 01:47:26;;;;;;;15.47;13.07;;;11.10;99.90;;;-141.84;100.00;119224.81;5090493;28;20231;-54
2024/02/17 01:49:55;;;;;;;15.50;12.73;;;11.10;99.90;;;-141.84;100.00;119224.81;5089621;28;20717;-53
2024/02/17 01:52:24;;;;;;;15.07;12.33;;;11.00;99.90;;;-141.84;100.00;119224.81;5091420;28;20582;-52
2024/02/17 01:54:53;;;;;;;13.50;11.73;;;11.00;99.90;;;-141.84;100.00;119224.81;5090771;28;20350;-53
2024/02/17 01:57:23;;;;;;;12.37;11.07;;;11.00;99.90;;;-141.84;100.00;119224.81;5091306;28;20742;-49
2024/02/17 01:59:53;;;;;;;14.33;11.97;;;11.00;99.90;;;-141.84;100.00;119224.81;5096202;28;20212;-58
2024/02/17 02:02:21;;;;;;;13.57;10.90;;;11.00;99.90;;;-141.84;100.00;119224.81;5094823;28;20192;-54
2024/02/17 02:04:52;;;;;;;12.33;10.23;;;11.00;99.90;;;-141.84;100.00;119224.81;5093736;28;20216;-52
2024/02/17 02:07:20;;;;;;;12.20;10.30;;;11.00;99.90;;;-141.84;100.00;119224.81;5095035;28;20240;-52
2024/02/17 02:09:49;;;;;;;10.93;9.20;;;11.00;99.90;;;-141.84;100.00;119224.81;5093955;28;20220;-53
2024/02/17 02:12:18;;;;;;;12.83;10.43;;;10.90;99.90;;;-141.84;100.00;119224.81;5092908;28;20220;-53
2024/02/17 02:15:03;;;;;;;13.20;10.77;;;10.90;99.90;;;-141.84;100.00;119224.81;5090618;28;20242;-55
2024/02/17 02:17:32;;;;;;;13.10;10.53;;;11.00;99.90;;;-141.84;100.00;119224.81;5094561;28;20204;-54
2024/02/17 02:20:02;;;;;;;13.33;10.57;;;10.90;99.90;;;-141.84;100.00;119224.81;5095341;28;20219;-53
2024/02/17 02:22:31;;;;;;;12.67;11.10;;;10.90;99.90;;;-141.84;100.00;119224.81;5094862;28;20220;-53
2024/02/17 02:25:00;;;;;;;12.27;10.97;;;10.90;99.90;;;-141.84;100.00;119224.81;5095051;28;20243;-53
2024/02/17 02:27:30;;;;;;;12.73;11.00;;;10.90;99.90;;;-141.84;100.00;119224.81;5093875;28;20278;-53
2024/02/17 02:29:59;;;;;;;13.43;10.53;;;10.80;99.90;;;-141.84;100.00;119224.81;5093717;28;20226;-56
2024/02/17 02:32:31;;;;;;;12.07;10.60;;;10.80;99.90;;;-141.84;100.00;119224.81;5094671;28;20660;-53
2024/02/17 02:34:59;;;;;;;16.53;12.60;;;10.80;99.90;;;-141.84;100.00;119224.81;5094633;28;20215;-51
2024/02/17 02:37:28;;;;;;;13.23;11.15;;;10.80;99.90;;;-141.84;100.00;119224.81;5094969;28;20224;-53
2024/02/17 02:39:56;;;;;;;13.53;11.33;;;10.70;99.90;;;-141.84;100.00;119224.81;5094471;28;20250;-51
2024/02/17 02:42:25;;;;;;;12.83;11.17;;;10.70;99.90;;;-141.84;100.00;119224.81;5092739;28;20247;-52
2024/02/17 02:44:54;;;;;;;14.17;11.53;;;10.60;99.90;;;-141.84;100.00;119224.81;5094159;28;20195;-53
2024/02/17 02:47:23;;;;;;;15.53;11.63;;;;;;;-141.84;100.00;119224.81;5094399;28;20638;-54
2024/02/17 02:49:52;;;;;;;14.17;11.50;;;;;;;-141.84;100.00;119224.81;5094655;28;20308;-54
2024/02/17 02:52:21;;;;;;;15.03;12.90;;;;;;;-141.84;100.00;119224.81;5094846;28;20309;-52
2024/02/17 02:54:52;;;;;;;15.87;11.97;;;;;;;-141.84;100.00;119224.81;5090625;28;20243;-51
2024/02/17 02:57:21;;;;;;;15.70;11.60;;;;;;;-141.84;100.00;119224.81;5094393;28;20228;-54
2024/02/17 02:59:51;;;;;;;16.60;12.27;;;;;;;-141.84;100.00;119224.81;5094503;28;20307;-54
2024/02/17 03:02:20;;;;;;;15.57;12.27;;;;;;;-141.84;100.00;119224.81;5094447;28;20216;-54
2024/02/17 03:04:49;;;;;;;14.73;11.60;;;;;;;-141.84;100.00;119224.81;5085215;28;20220;-54
2024/02/17 03:07:17;;;;;;;15.27;11.77;;;;;;;-141.84;100.00;119224.81;5093826;28;20771;-52
2024/02/17 03:09:46;;;;;;;16.93;12.57;;;10.50;99.90;;;-141.84;100.00;119224.81;5093889;28;20707;-53
2024/02/17 03:12:17;;;;;;;14.87;11.47;;;10.70;99.90;;;-141.84;100.00;119224.81;5094142;28;20460;-54
2024/02/17 03:14:45;;;;;;;15.50;11.53;;;10.60;99.90;;;-141.84;100.00;119224.81;5093312;28;20299;-55
2024/02/17 03:17:16;;;;;;;14.20;11.90;;;;;;;-141.84;100.00;119224.81;5093924;28;20223;-54
2024/02/17 03:19:51;;;;;;;14.10;11.40;;;10.50;99.90;;;-141.84;100.00;119224.81;5093178;28;20756;-54
2024/02/17 03:22:20;;;;;;;13.57;11.27;;;10.50;99.90;;;-141.84;100.00;119224.81;5091453;28;20227;-52
2024/02/17 03:24:49;;;;;;;12.93;10.97;;;10.40;99.90;;;-141.84;100.00;119224.81;5084016;28;20227;-54
2024/02/17 03:27:17;;;;;;;15.57;11.33;;;10.30;99.90;;;-141.84;100.00;119224.81;5092530;28;20319;-55
2024/02/17 03:29:50;;;;;;;13.17;10.67;;;10.20;99.90;;;-141.84;100.00;119224.81;5093904;28;20698;-53
2024/02/17 03:32:18;;;;;;;14.03;11.47;;;10.10;99.90;;;-141.84;100.00;119224.81;5094825;28;20232;-54
2024/02/17 03:34:48;;;;;;;16.10;12.67;;;9.90;99.90;;;-141.84;100.00;119224.81;5093584;28;20273;-54
2024/02/17 03:37:18;;;;;;;15.33;12.60;;;9.90;99.90;;;-141.84;100.00;119224.81;5094156;28;20224;-52
2024/02/17 03:39:48;;;;;;;16.60;13.30;;;9.80;99.90;;;-141.84;100.00;119224.81;5093052;28;20936;-51
2024/02/17 03:42:16;;;;;;;19.90;15.27;;;9.70;99.90;;;-141.84;100.00;119224.81;5093330;28;20246;-54
2024/02/17 03:44:50;;;;;;;20.20;15.27;;;;;;;-141.84;100.00;119224.81;5091033;28;20253;-54
2024/02/17 03:47:18;;;;;;;19.23;16.60;;;9.80;99.90;;;-141.84;100.00;119224.81;5094570;28;20718;-52
2024/02/17 03:49:52;;;;;;;18.47;14.33;;;;;;;-141.84;100.00;119224.81;5092559;28;20251;-53
2024/02/17 03:52:20;;;;;;;17.83;13.97;;;10.00;99.90;;;-141.84;100.00;119224.81;5092627;28;20703;-54
2024/02/17 03:54:49;;;;;;;18.97;13.70;;;9.70;99.90;;;-141.84;100.00;119224.81;5093506;28;20687;-54
2024/02/17 03:57:19;;;;;;;18.27;13.73;;;9.70;99.90;;;-141.84;100.00;119224.81;5093131;28;20228;-53
2024/02/17 03:59:48;;;;;;;17.63;13.50;;;9.70;99.90;;;-141.84;100.00;119224.81;5094039;28;20261;-50
2024/02/17 04:02:16;;;;;;;15.73;12.53;;;9.60;99.90;;;-141.84;100.00;119224.81;5092197;28;20220;-52
2024/02/17 04:04:44;;;;;;;15.60;12.80;;;9.60;99.90;;;-141.84;100.00;119224.81;5092417;28;20284;-54
2024/02/17 04:07:16;;;;;;;16.53;13.03;;;9.50;99.90;;;-141.84;100.00;119224.81;5092167;28;20759;-54
2024/02/17 04:09:44;;;;;;;14.30;12.00;;;9.50;99.90;;;-141.84;100.00;119224.81;5092223;28;20224;-50
2024/02/17 04:12:14;;;;;;;15.33;12.37;;;9.30;99.90;;;-141.84;100.00;119224.81;5091116;28;20219;-53
2024/02/17 04:14:43;;;;;;;17.03;13.03;;;9.30;99.90;;;-141.84;100.00;119224.81;5092303;28;20282;-52
2024/02/17 04:17:12;;;;;;;17.27;12.33;;;9.30;99.90;;;-141.84;100.00;119224.81;5056901;28;20235;-48
2024/02/17 04:19:40;;;;;;;17.03;12.03;;;9.20;99.90;;;-141.84;100.00;119224.81;5091742;28;20277;-54
2024/02/17 04:22:09;;;;;;;15.60;12.60;;;9.20;99.90;;;-141.84;100.00;119224.81;5093348;28;20296;-55
2024/02/17 04:24:38;;;;;;;16.67;12.80;;;9.20;99.90;;;-141.84;100.00;119224.81;5093611;28;20223;-53
2024/02/17 04:27:08;;;;;;;20.30;15.53;;;9.20;99.90;;;-141.84;100.00;119224.81;5091953;28;20193;-52
2024/02/17 04:29:36;;;;;;;20.53;16.20;;;9.20;99.90;;;-141.84;100.00;119224.81;5092702;28;20195;-53
2024/02/17 04:32:06;;;;;;;21.67;16.43;;;9.10;99.90;;;-141.84;100.00;119224.81;5092257;28;20353;-55
2024/02/17 04:34:35;;;;;;;23.73;18.20;;;9.10;99.90;;;-141.84;100.00;119224.81;5057032;28;20307;-53
2024/02/17 04:37:03;;;;;;;23.17;17.67;;;9.10;99.90;;;-141.84;100.00;119224.81;5091093;28;20307;-53
2024/02/17 04:39:34;;;;;;;22.37;16.33;;;9.10;99.90;;;-141.84;100.00;119224.81;5092088;28;20266;-53
2024/02/17 04:42:04;;;;;;;20.87;15.93;;;9.00;99.90;;;-141.84;100.00;119224.81;5093278;28;20192;-53
2024/02/17 04:44:33;;;;;;;19.37;15.87;;;8.90;99.90;;;-141.84;100.00;119224.81;5092792;28;20188;-53
2024/02/17 04:47:01;;;;;;;22.50;17.27;;;8.90;99.90;;;-141.84;100.00;119224.81;5092388;28;20212;-53
2024/02/17 04:49:29;;;;;;;24.63;19.50;;;8.90;99.90;;;-141.84;100.00;119224.81;5091416;28;20223;-53
2024/02/17 04:51:57;;;;;;;25.03;20.33;;;8.90;99.90;;;-141.84;100.00;119224.81;5091921;28;20220;-53
2024/02/17 04:54:26;;;;;;;25.13;18.53;;;9.00;99.90;;;-141.84;100.00;119224.81;5092172;28;20251;-52
2024/02/17 04:56:54;;;;;;;28.93;22.30;;;9.00;99.90;;;-141.84;100.00;119224.81;5091145;28;20585;-54
2024/02/17 04:59:24;;;;;;;25.03;19.63;;;9.00;99.90;;;-141.84;100.00;119224.81;5088786;28;20274;-54
2024/02/17 05:01:52;;;;;;;25.77;19.33;;;9.00;99.90;;;-141.84;100.00;119224.81;5091919;28;20216;-54
2024/02/17 05:04:20;;;;;;;25.60;20.50;;;9.00;99.90;;;-141.84;100.00;119224.81;5091536;28;20679;-52
2024/02/17 05:06:52;;;;;;;27.20;22.27;;;9.00;99.90;;;-141.84;100.00;119224.81;5090458;28;20242;-54
2024/02/17 05:09:20;;;;;;;25.83;20.93;;;9.00;99.90;;;-141.84;100.00;119224.81;5090949;28;20961;-55
2024/02/17 05:11:51;;;;;;;24.00;17.93;;;9.10;99.90;;;-141.84;100.00;119224.81;5091582;28;20215;-54
2024/02/17 05:14:19;;;;;;;26.93;19.30;;;9.10;99.90;;;-141.84;100.00;119224.81;5084732;28;20230;-50
2024/02/17 05:16:49;;;;;;;25.27;18.07;;;9.10;99.90;;;-141.84;100.00;119224.81;5090674;28;20250;-53
2024/02/17 05:19:18;;;;;;;24.30;18.50;;;9.10;99.90;;;-141.84;100.00;119224.81;5090846;28;20226;-53
2024/02/17 05:21:52;;;;;;;23.03;17.97;;;9.10;99.90;;;-141.84;100.00;119224.81;5091041;28;20247;-52
2024/02/17 05:24:21;;;;;;;23.20;16.47;;;9.00;99.90;;;-141.84;100.00;119224.81;5091010;28;20227;-51
2024/02/17 05:26:51;;;;;;;18.70;14.10;;;9.10;99.90;;;-141.84;100.00;119224.81;5091742;28;20911;-53
2024/02/17 05:29:19;;;;;;;21.33;14.87;;;9.10;99.90;;;-141.84;100.00;119224.81;5091610;28;20291;-53
2024/02/17 05:31:49;;;;;;;17.47;13.47;;;9.10;99.90;;;-141.84;100.00;119224.81;5091802;28;20224;-53
2024/02/17 05:34:19;;;;;;;17.83;12.37;;;9.00;99.90;;;-141.84;100.00;119224.81;5091106;28;20259;-53
2024/02/17 05:36:47;;;;;;;17.80;13.03;;;9.20;99.90;;;-141.84;100.00;119224.81;5091140;28;20233;-52
2024/02/17 05:39:16;;;;;;;16.67;12.53;;;9.20;99.90;;;-141.84;100.00;119224.81;5090508;28;20292;-49
2024/02/17 05:41:44;;;;;;;15.77;12.23;;;9.10;99.90;;;-141.84;100.00;119224.81;5091742;28;20227;-51
2024/02/17 05:44:12;;;;;;;15.90;12.23;;;9.10;99.90;;;-141.84;100.00;119224.81;5091360;28;20744;-50
2024/02/17 05:46:41;;;;;;;19.33;14.10;;;9.00;99.90;;;-141.84;100.00;119224.81;5090400;28;20840;-52
2024/02/17 05:49:10;;;;;;;18.53;13.73;;;9.00;99.90;;;-141.84;100.00;119224.81;5090873;28;20867;-54
2024/02/17 05:51:38;;;;;;;18.60;12.93;;;8.90;99.90;;;-141.84;100.00;119224.81;5089690;28;20591;-54
2024/02/17 05:54:07;;;;;;;15.37;11.73;;;8.80;99.90;;;-141.84;100.00;119224.81;5090465;28;20199;-53
2024/02/17 05:56:35;;;;;;;17.17;12.37;;;8.80;99.90;;;-141.84;100.00;119224.81;5091126;28;20774;-54
2024/02/17 05:59:03;;;;;;;17.63;11.73;;;8.80;99.90;;;-141.84;100.00;119224.81;5090420;28;20852;-54
2024/02/17 06:01:33;;;;;;;18.83;12.77;;;8.90;99.90;;;-141.84;100.00;119224.81;5081760;28;20216;-53
2024/02/17 06:04:01;;;;;;;17.23;12.13;;;8.90;99.90;;;-141.84;100.00;119224.81;5089983;28;20726;-55
2024/02/17 06:06:31;;;;;;;16.10;12.57;;;9.00;99.90;;;-141.84;100.00;119224.81;5089579;28;20231;-54
2024/02/17 06:08:59;;;;;;;18.50;11.93;;;8.90;99.90;;;-141.84;100.00;119224.81;5089929;28;20628;-53
2024/02/17 06:11:28;;;;;;;17.30;12.47;;;8.90;99.90;;;-141.84;100.00;119224.81;5091208;28;20203;-51
2024/02/17 06:13:56;;;;;;;16.63;11.93;;;8.80;99.90;;;-141.84;100.00;119224.81;5089824;28;20220;-56
2024/02/17 06:16:28;;;;;;;17.30;12.17;;;8.80;99.90;;;-141.84;100.00;119224.81;5089887;28;20306;-51
2024/02/17 06:21:44;;;;;;;15.23;10.93;;;8.70;99.90;;;-141.84;100.00;119224.81;5084305;28;20215;-52
2024/02/17 06:24:13;;;;;;;17.97;11.97;;;8.70;99.90;;;-141.84;100.00;119224.81;5091174;28;20220;-53
2024/02/17 06:26:41;;;;;;;17.77;11.80;;;8.70;99.90;;;-141.84;100.00;119224.81;5091414;28;20205;-55
2024/02/17 06:29:10;;;;;;;16.47;11.77;;;8.70;99.90;;;-141.84;100.00;119224.81;5090771;28;20259;-54
2024/02/17 06:31:39;;;;;;;15.17;11.43;;;8.70;99.90;;;-141.84;100.00;119224.81;5089552;28;20224;-55
2024/02/17 06:34:07;;;;;;;15.50;11.50;;;8.70;99.90;;;-141.84;100.00;119224.81;5090308;28;20220;-52
2024/02/17 06:36:37;;;;;;;16.33;12.07;;;8.70;99.90;;;-141.84;100.00;119224.81;5090179;28;20216;-53
2024/02/17 06:39:12;;;;;;;17.97;12.67;;;8.60;99.90;;;-141.84;100.00;119224.81;5091125;28;20242;-71
2024/02/17 06:41:40;;;;;;;16.37;12.60;;;8.60;99.90;;;-141.84;100.00;119224.81;5091085;28;20719;-71
2024/02/17 06:44:08;;;;;;;15.90;11.60;;;8.60;99.90;;;-141.84;100.00;119224.81;5092427;28;20224;-72
2024/02/17 06:46:37;;;;;;;15.43;10.83;;;8.50;99.90;;;-141.84;100.00;119224.81;5093190;28;20224;-71
2024/02/17 06:49:05;;;;;;;16.00;11.40;;;8.50;99.90;;;-141.84;100.00;119224.81;5094084;28;20311;-71
2024/02/17 06:51:36;;;;;;;17.07;11.40;;;8.50;99.90;;;-141.84;100.00;119224.81;5093425;28;20301;-73
2024/02/17 06:54:06;;;;;;;16.67;11.33;;;8.50;99.90;;;-141.84;100.00;119224.81;5085349;28;20200;-72
2024/02/17 06:56:35;;;;;;;17.07;11.70;;;8.50;99.90;;;-141.84;100.00;119224.81;5095424;28;20238;-73
2024/02/17 06:59:03;;;;;;;17.43;12.10;;;8.60;99.90;;;-141.84;100.00;119224.81;5093474;28;20216;-70
2024/02/17 07:01:31;;;;;;;19.13;11.30;;;8.70;99.90;;;-141.84;100.00;119224.81;5094586;28;20240;-70
2024/02/17 07:03:59;;;;;;;17.23;11.20;;;8.70;99.90;;;-141.84;100.00;119224.81;5093504;28;20220;-72
2024/02/17 07:06:28;;;;;;;15.10;11.23;;;8.70;99.90;;;-141.84;100.00;119224.81;5093000;28;20326;-71
2024/02/17 07:08:56;;;;;;;18.97;11.33;;;8.70;99.90;;;-141.84;100.00;119224.81;5093893;28;20188;-71
2024/02/17 07:11:27;;;;;;;16.93;11.30;;;8.70;99.90;;;-141.84;100.00;119224.81;5094331;28;20238;-71
2024/02/17 07:13:55;;;;;;;14.30;10.80;;;8.70;99.90;;;-141.84;100.00;119224.81;5093383;28;20334;-71
2024/02/17 07:16:24;;;;;;;20.97;14.13;;;8.70;99.90;;;-141.84;100.00;119224.81;5093393;28;20216;-72
2024/02/17 07:18:54;;;;;;;21.70;13.53;;;8.80;99.90;;;-141.84;100.00;119224.81;5094101;28;20230;-70
2024/02/17 07:21:24;;;;;;;17.27;12.23;;;8.90;99.90;;;-141.84;100.00;119224.81;5094184;28;20232;-71
2024/02/17 07:23:53;;;;;;;18.87;12.63;;;9.10;99.90;;;-141.84;100.00;119224.81;5093508;28;20636;-70
2024/02/17 07:26:21;;;;;;;16.20;11.87;;;9.20;99.90;;;-141.84;100.00;119224.81;5094316;28;20804;-71
2024/02/17 07:28:52;;;;;;;18.10;12.30;;;9.40;99.90;;;-141.84;100.00;119224.81;5085528;28;20219;-70
2024/02/17 07:31:20;;;;;;;16.80;11.87;;;9.70;99.90;;;-141.84;100.00;119224.81;5093309;28;20220;-71
2024/02/17 07:33:51;;;;;;;14.03;10.73;;;9.80;99.90;;;-141.84;100.00;119224.81;5092944;28;20263;-71
2024/02/17 07:36:19;;;;;;;15.90;11.43;;;10.00;99.90;;;-141.84;100.00;119224.81;5093609;28;20231;-72
2024/02/17 07:38:51;;;;;;;16.10;11.70;;;10.10;99.90;;;-141.84;100.00;119224.81;5093673;28;20211;-71
2024/02/17 07:41:20;;;;;;;15.70;10.80;;;10.10;99.90;;;-141.84;100.00;119224.81;5092205;28;20585;-71
2024/02/17 07:43:48;;;;;;;12.10;9.90;;;10.10;99.90;;;-141.84;100.00;119224.81;5093007;28;20242;-72
2024/02/17 07:46:18;;;;;;;12.93;10.20;;;10.20;99.90;;;-141.84;100.00;119224.81;5093506;28;20231;-71
2024/02/17 07:48:48;;;;;;;13.77;10.40;;;10.20;99.90;;;-141.84;100.00;119224.81;5092490;28;20220;-72
2024/02/17 07:51:17;;;;;;;12.77;9.47;;;10.20;99.90;;;-141.84;100.00;119222.75;5092786;28;21047;-71
2024/02/17 07:53:46;;;;;;;12.73;10.13;;;10.20;99.90;;;-141.84;100.00;118689.38;5093970;28;20289;-70
2024/02/17 07:56:14;;;;;;;13.77;10.00;;;10.20;99.90;;;-141.84;100.00;119222.75;5091277;28;20248;-71
2024/02/17 07:58:43;;;;;;;16.00;10.33;;;10.30;99.90;;;-141.84;100.00;119224.81;5093311;28;20620;-70
2024/02/17 08:01:13;;;;;;;13.10;10.20;;;10.30;99.90;;;-141.84;100.00;118156.06;5092513;28;20309;-71
2024/02/17 08:03:42;;;;;;;13.70;10.07;;;10.30;99.90;;;-141.84;100.00;118156.06;5094117;28;20223;-71
2024/02/17 08:06:14;;;;;;;12.30;9.83;;;10.40;99.90;;;-141.84;100.00;116290.06;5092762;28;20298;-69
2024/02/17 08:08:44;;;;;;;13.07;9.83;;;10.40;99.90;;;-141.84;100.00;114691.31;5092624;28;20180;-71
2024/02/17 08:11:12;;;;;;;12.50;10.53;;;10.50;99.90;;;-141.84;100.00;113892.16;5093463;28;20600;-70
2024/02/17 08:13:41;;;;;;;13.43;10.40;;;10.50;99.90;;;-141.84;100.00;108036.56;5092487;28;20255;-72
2024/02/17 08:16:11;;;;;;;11.57;9.60;;;10.60;99.90;;;-141.84;100.00;103783.25;5084995;28;20220;-71
2024/02/17 08:18:42;;;;;;;12.73;9.97;;;10.60;99.90;;;-141.84;100.00;103517.56;5093660;28;20232;-70
2024/02/17 08:21:13;;;;;;;12.00;9.23;;;10.70;99.90;;;-141.84;94.57;86285.31;5092854;28;20190;-71
2024/02/17 08:23:42;;;;;;;12.80;9.15;;;10.80;99.90;;;-141.84;94.22;84433.91;5093227;28;20184;-70
2024/02/17 08:26:15;;;;;;;11.97;8.90;;;10.80;99.90;;;-141.84;94.48;84433.91;5093094;28;20224;-71
2024/02/17 08:28:43;;;;;;;13.73;9.10;;;10.80;99.90;;;-141.84;93.74;82583.34;5091891;28;20319;-71
2024/02/17 08:31:12;;;;;;;12.50;8.83;;;10.80;99.90;;;-141.84;93.40;81262.06;5093093;28;20777;-70
2024/02/17 08:33:40;;;;;;;12.10;8.63;;;10.90;99.90;;;-141.84;94.94;86285.31;5091671;28;20224;-71
2024/02/17 08:36:09;;;;;;;11.07;9.33;;;10.90;99.90;;;-141.84;93.71;83376.34;5092241;28;20679;-70
2024/02/17 08:38:38;;;;;;;11.13;8.60;;;10.90;99.90;;;-141.84;93.99;83112.00;5091552;28;20230;-71
2024/02/17 08:41:07;;;;;;;12.00;9.20;;;11.00;99.90;;;-141.84;93.67;83112.00;5092372;28;20301;-71
2024/02/17 08:43:35;;;;;;;10.33;8.70;;;11.00;99.90;;;-141.84;91.51;75717.34;5091736;28;20298;-70
2024/02/17 08:46:03;;;;;;;11.73;8.80;;;11.00;99.90;;;-141.84;90.16;70970.84;5090024;28;20345;-70
2024/02/17 08:48:33;;;;;;;13.33;9.07;;;11.10;99.90;;;-141.84;89.02;64387.81;5090392;28;20251;-71
2024/02/17 08:51:01;;;;;;;8.53;7.63;;;11.20;99.90;;;-141.84;86.01;52303.44;5091904;28;20196;-70
2024/02/17 08:53:30;;;;;;;10.77;8.10;;;11.20;99.90;;;-141.84;86.08;47322.81;5091935;28;20667;-70
2024/02/17 08:56:00;;;;;;;10.67;8.10;;;11.20;99.90;;;-141.84;86.94;53615.19;5096907;28;20243;-70
2024/02/17 08:58:28;;;;;;;10.57;7.67;;;11.20;99.90;;;-141.84;84.82;42348.44;5091774;28;20273;-69
2024/02/17 09:00:57;;;;;;;9.07;8.00;;;11.20;99.90;;;-141.84;83.54;30557.44;5092372;28;20258;-54
2024/02/17 09:03:25;;;;;;;9.97;7.50;;;11.10;99.90;;;-141.84;84.28;35976.03;5082860;28;20224;-54
2024/02/17 09:05:54;;;;;;;11.30;8.87;;;11.10;99.90;;;-141.84;86.48;48632.88;5092022;28;20188;-53
2024/02/17 09:08:22;;;;;;;8.83;7.90;;;11.10;99.90;;;-141.84;88.75;62020.59;5091506;28;20258;-53
2024/02/17 09:10:50;;;;;;;9.57;7.90;;;11.00;99.90;;;-141.84;90.89;71497.94;5091359;28;20251;-53
2024/02/17 09:13:20;;;;;;;8.47;7.07;;;11.00;99.90;;;-141.84;89.93;68336.31;5092034;28;20270;-53
2024/02/17 09:15:52;;;;;;;9.37;7.77;;;11.00;99.90;;;-141.84;88.81;63861.66;5091639;28;20263;-53
2024/02/17 09:18:20;;;;;;;8.90;7.67;;;10.90;99.90;;;-141.84;87.49;56765.13;5089404;28;20247;-52
2024/02/17 09:20:50;;;;;;;8.43;7.43;;;10.80;99.90;;;-141.84;88.87;61757.66;5091989;28;20296;-55
2024/02/17 09:23:18;;;;;;;8.40;7.20;;;10.80;99.90;;;-141.84;91.39;73079.69;5091769;28;20231;-54
2024/02/17 09:25:46;;;;;;;11.93;8.80;;;10.80;99.90;;;-141.84;88.85;64914.06;5091368;28;20226;-52
2024/02/17 09:28:14;;;;;;;9.13;7.67;;;10.80;99.90;;;-141.84;89.41;63861.66;5092279;28;20265;-55
2024/02/17 09:30:44;;;;;;;9.97;8.13;;;10.70;99.90;;;-141.84;92.08;75717.34;5091214;28;20281;-51
2024/02/17 09:33:12;;;;;;;8.23;7.17;;;10.70;99.90;;;-141.84;93.96;82319.06;5053460;28;20266;-55
2024/02/17 09:35:41;;;;;;;9.07;7.33;;;10.70;99.90;;;-141.84;94.45;84433.91;5089707;28;20291;-54
2024/02/17 09:38:09;;;;;;;11.00;8.33;;;10.70;99.90;;;-141.84;94.89;86020.75;5089362;28;20264;-53
2024/02/17 09:40:38;;;;;;;9.93;8.40;;;10.70;99.90;;;-141.84;93.79;83112.00;5087896;28;20273;-69
2024/02/17 09:43:08;;;;;;;8.87;7.80;;;10.70;99.90;;;-141.84;94.15;83640.72;5089638;28;20227;-71
2024/02/17 09:45:37;;;;;;;10.20;7.80;;;10.70;99.90;;;-141.84;93.95;83640.72;5038553;28;20319;-70
2024/02/17 09:48:11;;;;;;;11.20;7.50;;;10.70;99.90;;;-141.84;92.08;78092.72;5090240;28;20215;-70
2024/02/17 09:50:42;;;;;;;10.30;8.13;;;10.80;99.90;;;-141.84;89.51;68072.97;5091120;28;20221;-70
2024/02/17 09:53:14;;;;;;;9.30;7.03;;;11.00;99.90;;;-141.84;87.12;58078.34;5094078;28;20932;-53
2024/02/17 09:55:46;;;;;;;10.77;7.87;;;11.20;99.90;;;-141.84;80.66;21834.53;5093120;28;20220;-52
2024/02/17 09:58:18;;;;;;;8.83;7.57;;;11.30;99.90;;;-141.84;80.21;21677.97;5092329;28;20611;-71
2024/02/17 10:00:52;;;;;;;9.25;7.53;;;11.60;99.90;;;-141.84;77.71;19187.91;5090597;28;20216;-70